sensor_id;sensor_type;location;lat;lon;timestamp;P1;durP1;ratioP1;P2;durP2;ratioP2
38529;SDS011;24301;54.332;48.386;2023-03-14T00:01:57;9.80;;;5.30;;
38529;SDS011;24301;54.332;48.386;2023-03-14T00:04:23;9.43;;;4.80;;
38529;SDS011;24301;54.332;48.386;2023-03-14T00:06:49;11.07;;;5.20;;
38529;SDS011;24301;54.332;48.386;2023-03-14T00:09:15;15.07;;;7.17;;
38529;SDS011;24301;54.332;48.386;2023-03-14T00:11:42;10.53;;;5.70;;
38529;SDS011;24301;54.332;48.386;2023-03-14T00:14:08;14.73;;;6.93;;
38529;SDS011;24301;54.332;48.386;2023-03-14T00:16:34;10.33;;;5.60;;
38529;SDS011;24301;54.332;48.386;2023-03-14T00:18:59;11.63;;;5.83;;
38529;SDS011;24301;54.332;48.386;2023-03-14T00:21:25;11.77;;;5.33;;
38529;SDS011;24301;54.332;48.386;2023-03-14T00:23:51;8.93;;;4.90;;
38529;SDS011;24301;54.332;48.386;2023-03-14T00:26:18;12.00;;;5.63;;
38529;SDS011;24301;54.332;48.386;2023-03-14T00:28:45;10.07;;;4.53;;
38529;SDS011;24301;54.332;48.386;2023-03-14T00:31:13;9.63;;;5.10;;
38529;SDS011;24301;54.332;48.386;2023-03-14T00:33:41;9.37;;;4.57;;
38529;SDS011;24301;54.332;48.386;2023-03-14T00:36:09;10.43;;;5.87;;
38529;SDS011;24301;54.332;48.386;2023-03-14T00:38:36;8.77;;;4.03;;
38529;SDS011;24301;54.332;48.386;2023-03-14T00:41:04;9.73;;;4.23;;
38529;SDS011;24301;54.332;48.386;2023-03-14T00:43:32;10.10;;;5.27;;
38529;SDS011;24301;54.332;48.386;2023-03-14T00:45:58;6.47;;;3.37;;
38529;SDS011;24301;54.332;48.386;2023-03-14T00:48:26;7.07;;;3.80;;
38529;SDS011;24301;54.332;48.386;2023-03-14T00:50:52;6.97;;;3.70;;
38529;SDS011;24301;54.332;48.386;2023-03-14T00:53:18;7.20;;;4.67;;
38529;SDS011;24301;54.332;48.386;2023-03-14T00:55:44;6.37;;;3.97;;
38529;SDS011;24301;54.332;48.386;2023-03-14T00:58:11;12.70;;;5.03;;
38529;SDS011;24301;54.332;48.386;2023-03-14T01:00:38;10.03;;;4.30;;
38529;SDS011;24301;54.332;48.386;2023-03-14T01:03:04;10.80;;;4.73;;
38529;SDS011;24301;54.332;48.386;2023-03-14T01:05:31;10.47;;;5.30;;
38529;SDS011;24301;54.332;48.386;2023-03-14T01:07:57;8.17;;;4.47;;
38529;SDS011;24301;54.332;48.386;2023-03-14T01:10:24;8.93;;;5.57;;
38529;SDS011;24301;54.332;48.386;2023-03-14T01:12:50;10.20;;;4.97;;
38529;SDS011;24301;54.332;48.386;2023-03-14T01:15:16;10.27;;;4.97;;
38529;SDS011;24301;54.332;48.386;2023-03-14T01:17:42;14.17;;;6.57;;
38529;SDS011;24301;54.332;48.386;2023-03-14T01:20:10;10.70;;;5.27;;
38529;SDS011;24301;54.332;48.386;2023-03-14T01:22:38;15.63;;;7.60;;
38529;SDS011;24301;54.332;48.386;2023-03-14T01:25:06;13.30;;;7.53;;
38529;SDS011;24301;54.332;48.386;2023-03-14T01:27:33;14.03;;;6.50;;
38529;SDS011;24301;54.332;48.386;2023-03-14T01:29:59;9.20;;;4.63;;
38529;SDS011;24301;54.332;48.386;2023-03-14T01:32:25;9.23;;;5.20;;
38529;SDS011;24301;54.332;48.386;2023-03-14T01:34:52;12.40;;;4.43;;
38529;SDS011;24301;54.332;48.386;2023-03-14T01:37:18;10.73;;;5.00;;
38529;SDS011;24301;54.332;48.386;2023-03-14T01:39:46;9.70;;;4.63;;
38529;SDS011;24301;54.332;48.386;2023-03-14T01:42:12;7.50;;;4.07;;
38529;SDS011;24301;54.332;48.386;2023-03-14T01:47:17;9.80;;;5.17;;
38529;SDS011;24301;54.332;48.386;2023-03-14T01:49:43;9.20;;;4.93;;
38529;SDS011;24301;54.332;48.386;2023-03-14T01:52:36;7.70;;;4.37;;
38529;SDS011;24301;54.332;48.386;2023-03-14T01:55:10;10.53;;;4.90;;
38529;SDS011;24301;54.332;48.386;2023-03-14T01:57:43;11.33;;;5.20;;
38529;SDS011;24301;54.332;48.386;2023-03-14T02:00:14;12.63;;;6.05;;
38529;SDS011;24301;54.332;48.386;2023-03-14T02:02:47;9.75;;;4.60;;
38529;SDS011;24301;54.332;48.386;2023-03-14T02:05:34;9.10;;;4.30;;
38529;SDS011;24301;54.332;48.386;2023-03-14T02:08:13;10.40;;;4.37;;
38529;SDS011;24301;54.332;48.386;2023-03-14T02:10:47;7.23;;;3.80;;
38529;SDS011;24301;54.332;48.386;2023-03-14T02:13:17;6.90;;;3.80;;
38529;SDS011;24301;54.332;48.386;2023-03-14T02:15:45;9.03;;;3.93;;
38529;SDS011;24301;54.332;48.386;2023-03-14T02:18:34;9.60;;;4.23;;
38529;SDS011;24301;54.332;48.386;2023-03-14T02:24:01;9.27;;;4.60;;
38529;SDS011;24301;54.332;48.386;2023-03-14T02:29:57;10.77;;;6.03;;
38529;SDS011;24301;54.332;48.386;2023-03-14T02:32:27;11.07;;;4.67;;
38529;SDS011;24301;54.332;48.386;2023-03-14T02:34:56;13.50;;;5.60;;
38529;SDS011;24301;54.332;48.386;2023-03-14T02:37:27;10.77;;;5.40;;
38529;SDS011;24301;54.332;48.386;2023-03-14T02:39:59;9.63;;;4.60;;
38529;SDS011;24301;54.332;48.386;2023-03-14T02:42:28;12.07;;;5.20;;
38529;SDS011;24301;54.332;48.386;2023-03-14T02:44:55;12.97;;;5.40;;
38529;SDS011;24301;54.332;48.386;2023-03-14T02:47:29;12.03;;;6.27;;
38529;SDS011;24301;54.332;48.386;2023-03-14T02:50:02;12.83;;;6.57;;
38529;SDS011;24301;54.332;48.386;2023-03-14T02:52:31;12.17;;;6.57;;
38529;SDS011;24301;54.332;48.386;2023-03-14T02:54:57;15.10;;;7.40;;
38529;SDS011;24301;54.332;48.386;2023-03-14T02:57:24;14.87;;;7.97;;
38529;SDS011;24301;54.332;48.386;2023-03-14T02:59:50;13.83;;;6.57;;
38529;SDS011;24301;54.332;48.386;2023-03-14T03:02:18;12.07;;;5.40;;
38529;SDS011;24301;54.332;48.386;2023-03-14T03:04:44;8.83;;;5.00;;
38529;SDS011;24301;54.332;48.386;2023-03-14T03:07:10;9.53;;;4.63;;
38529;SDS011;24301;54.332;48.386;2023-03-14T03:09:36;11.80;;;5.17;;
38529;SDS011;24301;54.332;48.386;2023-03-14T03:12:02;10.93;;;5.53;;
38529;SDS011;24301;54.332;48.386;2023-03-14T03:14:29;11.70;;;5.87;;
38529;SDS011;24301;54.332;48.386;2023-03-14T03:16:58;12.53;;;6.37;;
38529;SDS011;24301;54.332;48.386;2023-03-14T03:19:24;10.73;;;5.77;;
38529;SDS011;24301;54.332;48.386;2023-03-14T03:21:50;10.00;;;5.33;;
38529;SDS011;24301;54.332;48.386;2023-03-14T03:24:15;11.63;;;5.07;;
38529;SDS011;24301;54.332;48.386;2023-03-14T03:26:41;10.77;;;5.03;;
38529;SDS011;24301;54.332;48.386;2023-03-14T03:29:09;10.10;;;5.60;;
38529;SDS011;24301;54.332;48.386;2023-03-14T03:31:36;12.90;;;6.90;;
38529;SDS011;24301;54.332;48.386;2023-03-14T03:34:03;11.10;;;5.30;;
38529;SDS011;24301;54.332;48.386;2023-03-14T03:36:29;10.77;;;5.47;;
38529;SDS011;24301;54.332;48.386;2023-03-14T03:38:57;8.53;;;4.27;;
38529;SDS011;24301;54.332;48.386;2023-03-14T03:41:23;12.60;;;4.53;;
38529;SDS011;24301;54.332;48.386;2023-03-14T03:43:50;4.13;;;2.83;;
38529;SDS011;24301;54.332;48.386;2023-03-14T03:46:16;5.97;;;2.70;;
38529;SDS011;24301;54.332;48.386;2023-03-14T03:48:43;4.77;;;2.70;;
38529;SDS011;24301;54.332;48.386;2023-03-14T03:51:11;4.53;;;2.70;;
38529;SDS011;24301;54.332;48.386;2023-03-14T03:53:41;4.63;;;2.27;;
38529;SDS011;24301;54.332;48.386;2023-03-14T03:56:10;5.63;;;2.00;;
38529;SDS011;24301;54.332;48.386;2023-03-14T03:58:36;3.97;;;1.73;;
38529;SDS011;24301;54.332;48.386;2023-03-14T04:01:04;1.87;;;1.23;;
38529;SDS011;24301;54.332;48.386;2023-03-14T04:03:32;2.43;;;1.73;;
38529;SDS011;24301;54.332;48.386;2023-03-14T04:06:02;2.57;;;1.53;;
38529;SDS011;24301;54.332;48.386;2023-03-14T04:08:32;5.47;;;1.50;;
38529;SDS011;24301;54.332;48.386;2023-03-14T04:10:59;3.13;;;1.43;;
38529;SDS011;24301;54.332;48.386;2023-03-14T04:13:44;2.00;;;1.30;;
38529;SDS011;24301;54.332;48.386;2023-03-14T04:16:15;2.63;;;1.60;;
38529;SDS011;24301;54.332;48.386;2023-03-14T04:18:44;3.47;;;1.80;;
38529;SDS011;24301;54.332;48.386;2023-03-14T04:21:10;2.67;;;1.97;;
38529;SDS011;24301;54.332;48.386;2023-03-14T04:23:45;2.40;;;1.53;;
38529;SDS011;24301;54.332;48.386;2023-03-14T04:26:11;2.63;;;1.70;;
38529;SDS011;24301;54.332;48.386;2023-03-14T04:28:37;2.70;;;2.00;;
38529;SDS011;24301;54.332;48.386;2023-03-14T04:31:08;2.97;;;1.90;;
38529;SDS011;24301;54.332;48.386;2023-03-14T04:33:35;4.43;;;1.87;;
38529;SDS011;24301;54.332;48.386;2023-03-14T04:36:03;3.00;;;1.63;;
38529;SDS011;24301;54.332;48.386;2023-03-14T04:38:30;3.90;;;1.63;;
38529;SDS011;24301;54.332;48.386;2023-03-14T04:40:56;3.27;;;1.83;;
38529;SDS011;24301;54.332;48.386;2023-03-14T04:43:28;2.50;;;1.70;;
38529;SDS011;24301;54.332;48.386;2023-03-14T04:46:00;1.93;;;1.43;;
38529;SDS011;24301;54.332;48.386;2023-03-14T04:48:26;2.43;;;1.70;;
38529;SDS011;24301;54.332;48.386;2023-03-14T04:50:53;2.53;;;1.80;;
38529;SDS011;24301;54.332;48.386;2023-03-14T04:53:19;3.43;;;1.50;;
38529;SDS011;24301;54.332;48.386;2023-03-14T04:55:47;2.33;;;1.73;;
38529;SDS011;24301;54.332;48.386;2023-03-14T04:58:19;1.90;;;1.33;;
38529;SDS011;24301;54.332;48.386;2023-03-14T05:00:46;3.60;;;1.27;;
38529;SDS011;24301;54.332;48.386;2023-03-14T05:03:36;2.40;;;1.10;;
38529;SDS011;24301;54.332;48.386;2023-03-14T05:06:12;1.52;;;1.10;;
38529;SDS011;24301;54.332;48.386;2023-03-14T05:08:41;2.17;;;1.85;;
38529;SDS011;24301;54.332;48.386;2023-03-14T05:11:13;1.95;;;1.27;;
38529;SDS011;24301;54.332;48.386;2023-03-14T05:14:14;2.13;;;1.40;;
38529;SDS011;24301;54.332;48.386;2023-03-14T05:16:56;2.45;;;1.48;;
38529;SDS011;24301;54.332;48.386;2023-03-14T05:19:48;1.75;;;1.30;;
38529;SDS011;24301;54.332;48.386;2023-03-14T05:22:34;2.20;;;1.45;;
38529;SDS011;24301;54.332;48.386;2023-03-14T05:25:00;2.80;;;1.25;;
38529;SDS011;24301;54.332;48.386;2023-03-14T05:28:04;2.05;;;1.50;;
38529;SDS011;24301;54.332;48.386;2023-03-14T05:30:56;1.60;;;1.33;;
38529;SDS011;24301;54.332;48.386;2023-03-14T05:33:42;1.83;;;1.40;;
38529;SDS011;24301;54.332;48.386;2023-03-14T05:36:26;1.63;;;1.10;;
38529;SDS011;24301;54.332;48.386;2023-03-14T05:39:06;1.92;;;1.30;;
38529;SDS011;24301;54.332;48.386;2023-03-14T05:41:58;1.58;;;1.48;;
38529;SDS011;24301;54.332;48.386;2023-03-14T05:44:49;3.72;;;2.00;;
38529;SDS011;24301;54.332;48.386;2023-03-14T05:47:31;1.95;;;1.10;;
38529;SDS011;24301;54.332;48.386;2023-03-14T05:50:19;2.20;;;1.10;;
38529;SDS011;24301;54.332;48.386;2023-03-14T05:53:14;1.23;;;1.13;;
38529;SDS011;24301;54.332;48.386;2023-03-14T05:56:11;2.10;;;1.33;;
38529;SDS011;24301;54.332;48.386;2023-03-14T05:59:07;4.22;;;1.75;;
38529;SDS011;24301;54.332;48.386;2023-03-14T06:02:00;3.03;;;1.77;;
38529;SDS011;24301;54.332;48.386;2023-03-14T06:04:29;2.35;;;1.77;;
38529;SDS011;24301;54.332;48.386;2023-03-14T06:06:58;3.15;;;1.70;;
38529;SDS011;24301;54.332;48.386;2023-03-14T06:09:24;2.45;;;1.67;;
38529;SDS011;24301;54.332;48.386;2023-03-14T06:11:52;2.50;;;1.75;;
38529;SDS011;24301;54.332;48.386;2023-03-14T06:14:18;3.88;;;2.05;;
38529;SDS011;24301;54.332;48.386;2023-03-14T06:16:46;3.92;;;1.80;;
38529;SDS011;24301;54.332;48.386;2023-03-14T06:19:15;3.55;;;1.55;;
38529;SDS011;24301;54.332;48.386;2023-03-14T06:21:42;3.72;;;2.00;;
38529;SDS011;24301;54.332;48.386;2023-03-14T06:24:08;2.75;;;1.98;;
38529;SDS011;24301;54.332;48.386;2023-03-14T06:26:39;2.60;;;2.00;;
38529;SDS011;24301;54.332;48.386;2023-03-14T06:29:05;2.22;;;1.77;;
38529;SDS011;24301;54.332;48.386;2023-03-14T06:31:33;2.03;;;1.50;;
38529;SDS011;24301;54.332;48.386;2023-03-14T06:34:02;1.55;;;1.45;;
38529;SDS011;24301;54.332;48.386;2023-03-14T06:36:30;4.32;;;1.60;;
38529;SDS011;24301;54.332;48.386;2023-03-14T06:38:57;1.95;;;1.40;;
38529;SDS011;24301;54.332;48.386;2023-03-14T06:41:23;2.70;;;1.52;;
38529;SDS011;24301;54.332;48.386;2023-03-14T06:43:51;1.42;;;1.30;;
38529;SDS011;24301;54.332;48.386;2023-03-14T06:46:18;2.13;;;1.48;;
38529;SDS011;24301;54.332;48.386;2023-03-14T06:48:44;1.73;;;1.38;;
38529;SDS011;24301;54.332;48.386;2023-03-14T06:51:27;1.75;;;1.30;;
38529;SDS011;24301;54.332;48.386;2023-03-14T06:53:53;2.70;;;1.65;;
38529;SDS011;24301;54.332;48.386;2023-03-14T06:56:21;1.45;;;1.35;;
38529;SDS011;24301;54.332;48.386;2023-03-14T06:58:47;2.45;;;1.80;;
38529;SDS011;24301;54.332;48.386;2023-03-14T07:01:17;2.50;;;2.30;;
38529;SDS011;24301;54.332;48.386;2023-03-14T07:03:47;2.10;;;1.60;;
38529;SDS011;24301;54.332;48.386;2023-03-14T07:06:13;2.10;;;1.52;;
38529;SDS011;24301;54.332;48.386;2023-03-14T07:08:39;2.28;;;1.50;;
38529;SDS011;24301;54.332;48.386;2023-03-14T07:11:04;2.67;;;1.52;;
38529;SDS011;24301;54.332;48.386;2023-03-14T07:13:33;1.50;;;1.40;;
38529;SDS011;24301;54.332;48.386;2023-03-14T07:16:03;1.48;;;1.10;;
38529;SDS011;24301;54.332;48.386;2023-03-14T07:18:30;1.88;;;1.23;;
38529;SDS011;24301;54.332;48.386;2023-03-14T07:20:56;1.98;;;1.27;;
38529;SDS011;24301;54.332;48.386;2023-03-14T07:23:21;2.65;;;1.80;;
38529;SDS011;24301;54.332;48.386;2023-03-14T07:25:50;1.95;;;1.40;;
38529;SDS011;24301;54.332;48.386;2023-03-14T07:28:20;2.22;;;1.50;;
38529;SDS011;24301;54.332;48.386;2023-03-14T07:30:47;1.63;;;1.50;;
38529;SDS011;24301;54.332;48.386;2023-03-14T07:33:19;2.70;;;1.95;;
38529;SDS011;24301;54.332;48.386;2023-03-14T07:35:49;2.00;;;1.73;;
38529;SDS011;24301;54.332;48.386;2023-03-14T07:38:15;1.67;;;1.27;;
38529;SDS011;24301;54.332;48.386;2023-03-14T07:40:58;2.22;;;1.67;;
38529;SDS011;24301;54.332;48.386;2023-03-14T07:43:30;2.08;;;1.20;;
38529;SDS011;24301;54.332;48.386;2023-03-14T07:45:59;2.17;;;1.52;;
38529;SDS011;24301;54.332;48.386;2023-03-14T07:48:25;3.78;;;1.85;;
38529;SDS011;24301;54.332;48.386;2023-03-14T07:50:52;3.08;;;1.67;;
38529;SDS011;24301;54.332;48.386;2023-03-14T07:53:19;3.70;;;1.60;;
38529;SDS011;24301;54.332;48.386;2023-03-14T07:55:46;1.67;;;1.58;;
38529;SDS011;24301;54.332;48.386;2023-03-14T07:58:13;2.38;;;1.85;;
38529;SDS011;24301;54.332;48.386;2023-03-14T08:00:39;3.08;;;1.42;;
38529;SDS011;24301;54.332;48.386;2023-03-14T08:03:05;2.55;;;1.40;;
38529;SDS011;24301;54.332;48.386;2023-03-14T08:05:34;1.77;;;1.60;;
38529;SDS011;24301;54.332;48.386;2023-03-14T08:08:01;2.47;;;1.60;;
38529;SDS011;24301;54.332;48.386;2023-03-14T08:10:27;3.50;;;1.48;;
38529;SDS011;24301;54.332;48.386;2023-03-14T08:12:54;3.28;;;1.75;;
38529;SDS011;24301;54.332;48.386;2023-03-14T08:15:22;4.25;;;2.45;;
38529;SDS011;24301;54.332;48.386;2023-03-14T08:17:48;3.97;;;2.15;;
38529;SDS011;24301;54.332;48.386;2023-03-14T08:20:16;4.25;;;2.17;;
38529;SDS011;24301;54.332;48.386;2023-03-14T08:22:43;4.13;;;2.17;;
38529;SDS011;24301;54.332;48.386;2023-03-14T08:25:09;5.00;;;2.80;;
38529;SDS011;24301;54.332;48.386;2023-03-14T08:27:35;4.13;;;2.33;;
38529;SDS011;24301;54.332;48.386;2023-03-14T08:30:04;2.60;;;2.33;;
38529;SDS011;24301;54.332;48.386;2023-03-14T08:32:31;4.88;;;3.90;;
38529;SDS011;24301;54.332;48.386;2023-03-14T08:34:57;4.68;;;3.03;;
38529;SDS011;24301;54.332;48.386;2023-03-14T08:37:23;4.25;;;3.03;;
38529;SDS011;24301;54.332;48.386;2023-03-14T08:39:50;5.50;;;4.50;;
38529;SDS011;24301;54.332;48.386;2023-03-14T08:42:17;5.97;;;3.72;;
38529;SDS011;24301;54.332;48.386;2023-03-14T08:44:43;4.45;;;2.50;;
38529;SDS011;24301;54.332;48.386;2023-03-14T08:47:09;4.53;;;3.00;;
38529;SDS011;24301;54.332;48.386;2023-03-14T08:49:35;2.17;;;1.97;;
38529;SDS011;24301;54.332;48.386;2023-03-14T08:52:02;2.73;;;2.30;;
38529;SDS011;24301;54.332;48.386;2023-03-14T08:54:30;2.93;;;2.10;;
38529;SDS011;24301;54.332;48.386;2023-03-14T08:56:57;3.50;;;2.57;;
38529;SDS011;24301;54.332;48.386;2023-03-14T08:59:23;2.37;;;2.10;;
38529;SDS011;24301;54.332;48.386;2023-03-14T09:01:49;7.13;;;3.10;;
38529;SDS011;24301;54.332;48.386;2023-03-14T09:04:15;3.57;;;1.80;;
38529;SDS011;24301;54.332;48.386;2023-03-14T09:06:42;3.17;;;2.03;;
38529;SDS011;24301;54.332;48.386;2023-03-14T09:09:08;2.47;;;2.00;;
38529;SDS011;24301;54.332;48.386;2023-03-14T09:11:34;4.00;;;2.10;;
38529;SDS011;24301;54.332;48.386;2023-03-14T09:14:00;2.60;;;1.70;;
38529;SDS011;24301;54.332;48.386;2023-03-14T09:16:26;3.07;;;1.93;;
38529;SDS011;24301;54.332;48.386;2023-03-14T09:18:52;1.87;;;1.57;;
38529;SDS011;24301;54.332;48.386;2023-03-14T09:21:27;2.30;;;2.10;;
38529;SDS011;24301;54.332;48.386;2023-03-14T09:23:54;4.83;;;1.70;;
38529;SDS011;24301;54.332;48.386;2023-03-14T09:26:19;4.33;;;1.80;;
38529;SDS011;24301;54.332;48.386;2023-03-14T09:28:45;3.20;;;1.67;;
38529;SDS011;24301;54.332;48.386;2023-03-14T09:31:11;2.00;;;1.63;;
38529;SDS011;24301;54.332;48.386;2023-03-14T09:33:38;2.17;;;1.33;;
38529;SDS011;24301;54.332;48.386;2023-03-14T09:36:04;1.83;;;1.57;;
38529;SDS011;24301;54.332;48.386;2023-03-14T09:38:30;2.87;;;1.67;;
38529;SDS011;24301;54.332;48.386;2023-03-14T09:40:58;3.07;;;1.40;;
38529;SDS011;24301;54.332;48.386;2023-03-14T09:43:28;3.33;;;1.63;;
38529;SDS011;24301;54.332;48.386;2023-03-14T09:45:57;3.60;;;1.40;;
38529;SDS011;24301;54.332;48.386;2023-03-14T09:48:27;1.97;;;1.37;;
38529;SDS011;24301;54.332;48.386;2023-03-14T09:50:56;1.77;;;1.40;;
38529;SDS011;24301;54.332;48.386;2023-03-14T09:56:26;1.63;;;1.30;;
38529;SDS011;24301;54.332;48.386;2023-03-14T09:58:57;7.90;;;2.20;;
38529;SDS011;24301;54.332;48.386;2023-03-14T10:01:26;1.63;;;1.23;;
38529;SDS011;24301;54.332;48.386;2023-03-14T10:03:55;2.80;;;1.23;;
38529;SDS011;24301;54.332;48.386;2023-03-14T10:06:23;1.70;;;1.23;;
38529;SDS011;24301;54.332;48.386;2023-03-14T10:08:52;1.30;;;1.00;;
38529;SDS011;24301;54.332;48.386;2023-03-14T10:11:20;3.03;;;1.40;;
38529;SDS011;24301;54.332;48.386;2023-03-14T10:13:48;1.70;;;1.20;;
38529;SDS011;24301;54.332;48.386;2023-03-14T10:16:30;3.83;;;1.33;;
38529;SDS011;24301;54.332;48.386;2023-03-14T10:19:05;1.70;;;1.27;;
38529;SDS011;24301;54.332;48.386;2023-03-14T10:21:37;2.33;;;1.20;;
38529;SDS011;24301;54.332;48.386;2023-03-14T10:24:21;1.77;;;1.10;;
38529;SDS011;24301;54.332;48.386;2023-03-14T10:26:52;2.07;;;1.60;;
38529;SDS011;24301;54.332;48.386;2023-03-14T10:29:20;1.67;;;1.37;;
38529;SDS011;24301;54.332;48.386;2023-03-14T10:31:58;2.30;;;1.10;;
38529;SDS011;24301;54.332;48.386;2023-03-14T10:34:34;2.17;;;1.70;;
38529;SDS011;24301;54.332;48.386;2023-03-14T10:37:16;1.37;;;1.03;;
38529;SDS011;24301;54.332;48.386;2023-03-14T10:39:53;1.73;;;1.10;;
38529;SDS011;24301;54.332;48.386;2023-03-14T10:42:24;2.40;;;1.10;;
38529;SDS011;24301;54.332;48.386;2023-03-14T10:44:57;1.45;;;1.35;;
38529;SDS011;24301;54.332;48.386;2023-03-14T10:47:26;1.40;;;1.30;;
38529;SDS011;24301;54.332;48.386;2023-03-14T10:49:53;1.40;;;1.30;;
38529;SDS011;24301;54.332;48.386;2023-03-14T10:52:24;2.30;;;1.63;;
38529;SDS011;24301;54.332;48.386;2023-03-14T10:54:56;2.40;;;1.53;;
38529;SDS011;24301;54.332;48.386;2023-03-14T10:57:24;2.30;;;1.70;;
38529;SDS011;24301;54.332;48.386;2023-03-14T10:59:51;3.33;;;1.50;;
38529;SDS011;24301;54.332;48.386;2023-03-14T11:02:32;2.47;;;1.53;;
38529;SDS011;24301;54.332;48.386;2023-03-14T11:07:57;2.30;;;1.40;;
38529;SDS011;24301;54.332;48.386;2023-03-14T11:10:38;5.87;;;1.77;;
38529;SDS011;24301;54.332;48.386;2023-03-14T11:21:29;3.30;;;1.57;;
38529;SDS011;24301;54.332;48.386;2023-03-14T11:35:55;2.43;;;1.20;;
38529;SDS011;24301;54.332;48.386;2023-03-14T11:38:29;2.00;;;1.40;;
38529;SDS011;24301;54.332;48.386;2023-03-14T11:40:56;2.90;;;1.60;;
38529;SDS011;24301;54.332;48.386;2023-03-14T11:46:03;2.07;;;1.20;;
38529;SDS011;24301;54.332;48.386;2023-03-14T11:48:41;1.70;;;1.23;;
38529;SDS011;24301;54.332;48.386;2023-03-14T11:51:23;1.77;;;1.40;;
38529;SDS011;24301;54.332;48.386;2023-03-14T11:59:19;1.33;;;1.07;;
38529;SDS011;24301;54.332;48.386;2023-03-14T12:04:30;4.30;;;1.20;;
38529;SDS011;24301;54.332;48.386;2023-03-14T12:06:57;2.33;;;0.93;;
38529;SDS011;24301;54.332;48.386;2023-03-14T12:09:32;4.10;;;1.17;;
38529;SDS011;24301;54.332;48.386;2023-03-14T12:12:00;2.63;;;1.20;;
38529;SDS011;24301;54.332;48.386;2023-03-14T12:14:29;5.23;;;1.57;;
38529;SDS011;24301;54.332;48.386;2023-03-14T12:17:17;5.30;;;1.40;;
38529;SDS011;24301;54.332;48.386;2023-03-14T12:19:46;2.07;;;1.27;;
38529;SDS011;24301;54.332;48.386;2023-03-14T12:24:45;2.90;;;1.43;;
38529;SDS011;24301;54.332;48.386;2023-03-14T12:27:37;2.33;;;1.40;;
38529;SDS011;24301;54.332;48.386;2023-03-14T12:30:04;1.93;;;1.53;;
38529;SDS011;24301;54.332;48.386;2023-03-14T12:33:10;1.70;;;1.17;;
38529;SDS011;24301;54.332;48.386;2023-03-14T12:35:42;4.10;;;2.30;;
38529;SDS011;24301;54.332;48.386;2023-03-14T12:38:10;2.40;;;1.60;;
38529;SDS011;24301;54.332;48.386;2023-03-14T12:40:47;3.57;;;1.20;;
38529;SDS011;24301;54.332;48.386;2023-03-14T12:43:30;2.27;;;1.60;;
38529;SDS011;24301;54.332;48.386;2023-03-14T12:49:03;1.85;;;1.08;;
38529;SDS011;24301;54.332;48.386;2023-03-14T12:51:37;2.27;;;1.57;;
38529;SDS011;24301;54.332;48.386;2023-03-14T12:59:52;5.73;;;1.57;;
38529;SDS011;24301;54.332;48.386;2023-03-14T13:02:28;2.17;;;1.20;;
38529;SDS011;24301;54.332;48.386;2023-03-14T13:05:09;3.87;;;2.03;;
38529;SDS011;24301;54.332;48.386;2023-03-14T13:15:31;3.23;;;1.60;;
38529;SDS011;24301;54.332;48.386;2023-03-14T13:18:07;2.73;;;1.30;;
38529;SDS011;24301;54.332;48.386;2023-03-14T13:20:38;2.37;;;1.60;;
38529;SDS011;24301;54.332;48.386;2023-03-14T13:23:23;3.22;;;1.58;;
38529;SDS011;24301;54.332;48.386;2023-03-14T13:25:54;2.63;;;1.52;;
38529;SDS011;24301;54.332;48.386;2023-03-14T13:28:20;4.23;;;2.63;;
38529;SDS011;24301;54.332;48.386;2023-03-14T13:30:47;2.63;;;1.47;;
38529;SDS011;24301;54.332;48.386;2023-03-14T13:33:18;2.10;;;1.23;;
38529;SDS011;24301;54.332;48.386;2023-03-14T13:36:04;2.63;;;1.67;;
38529;SDS011;24301;54.332;48.386;2023-03-14T13:38:31;2.50;;;1.30;;
38529;SDS011;24301;54.332;48.386;2023-03-14T13:41:00;2.17;;;1.30;;
38529;SDS011;24301;54.332;48.386;2023-03-14T13:43:30;2.63;;;1.40;;
38529;SDS011;24301;54.332;48.386;2023-03-14T13:46:07;1.70;;;1.20;;
38529;SDS011;24301;54.332;48.386;2023-03-14T13:48:47;4.63;;;1.47;;
38529;SDS011;24301;54.332;48.386;2023-03-14T13:51:16;1.67;;;1.50;;
38529;SDS011;24301;54.332;48.386;2023-03-14T13:56:21;2.10;;;1.23;;
38529;SDS011;24301;54.332;48.386;2023-03-14T13:58:49;2.63;;;1.20;;
38529;SDS011;24301;54.332;48.386;2023-03-14T14:03:54;2.67;;;1.13;;
38529;SDS011;24301;54.332;48.386;2023-03-14T14:06:25;1.30;;;1.20;;
38529;SDS011;24301;54.332;48.386;2023-03-14T14:08:53;2.10;;;1.20;;
38529;SDS011;24301;54.332;48.386;2023-03-14T14:11:37;1.20;;;1.10;;
38529;SDS011;24301;54.332;48.386;2023-03-14T14:14:10;2.03;;;1.20;;
38529;SDS011;24301;54.332;48.386;2023-03-14T14:16:43;1.73;;;1.20;;
38529;SDS011;24301;54.332;48.386;2023-03-14T14:19:10;1.87;;;1.10;;
38529;SDS011;24301;54.332;48.386;2023-03-14T14:21:37;4.13;;;2.47;;
38529;SDS011;24301;54.332;48.386;2023-03-14T14:24:04;1.67;;;1.00;;
38529;SDS011;24301;54.332;48.386;2023-03-14T14:26:30;2.30;;;1.40;;
38529;SDS011;24301;54.332;48.386;2023-03-14T14:29:04;2.20;;;1.17;;
38529;SDS011;24301;54.332;48.386;2023-03-14T14:31:30;3.00;;;1.13;;
38529;SDS011;24301;54.332;48.386;2023-03-14T14:34:03;1.30;;;1.07;;
38529;SDS011;24301;54.332;48.386;2023-03-14T14:36:31;1.30;;;1.20;;
38529;SDS011;24301;54.332;48.386;2023-03-14T14:39:10;1.27;;;1.17;;
38529;SDS011;24301;54.332;48.386;2023-03-14T14:41:42;1.13;;;0.80;;
38529;SDS011;24301;54.332;48.386;2023-03-14T14:44:12;1.33;;;1.00;;
38529;SDS011;24301;54.332;48.386;2023-03-14T14:46:41;1.90;;;1.20;;
38529;SDS011;24301;54.332;48.386;2023-03-14T14:49:15;2.77;;;1.07;;
38529;SDS011;24301;54.332;48.386;2023-03-14T14:51:47;1.67;;;1.30;;
38529;SDS011;24301;54.332;48.386;2023-03-14T14:54:18;1.50;;;1.17;;
38529;SDS011;24301;54.332;48.386;2023-03-14T14:57:00;1.37;;;1.27;;
38529;SDS011;24301;54.332;48.386;2023-03-14T14:59:28;3.53;;;1.10;;
38529;SDS011;24301;54.332;48.386;2023-03-14T15:01:55;1.50;;;1.10;;
38529;SDS011;24301;54.332;48.386;2023-03-14T15:04:22;2.63;;;1.57;;
38529;SDS011;24301;54.332;48.386;2023-03-14T15:06:48;2.00;;;1.43;;
38529;SDS011;24301;54.332;48.386;2023-03-14T15:09:15;1.33;;;1.03;;
38529;SDS011;24301;54.332;48.386;2023-03-14T15:11:42;2.00;;;1.10;;
38529;SDS011;24301;54.332;48.386;2023-03-14T15:14:09;1.40;;;1.30;;
38529;SDS011;24301;54.332;48.386;2023-03-14T15:16:35;2.37;;;1.53;;
38529;SDS011;24301;54.332;48.386;2023-03-14T15:19:02;2.73;;;1.50;;
38529;SDS011;24301;54.332;48.386;2023-03-14T15:21:34;1.40;;;1.30;;
38529;SDS011;24301;54.332;48.386;2023-03-14T15:23:59;2.23;;;1.40;;
38529;SDS011;24301;54.332;48.386;2023-03-14T15:26:29;3.20;;;1.40;;
38529;SDS011;24301;54.332;48.386;2023-03-14T15:28:55;1.27;;;1.10;;
38529;SDS011;24301;54.332;48.386;2023-03-14T15:31:21;2.33;;;1.20;;
38529;SDS011;24301;54.332;48.386;2023-03-14T15:33:48;2.00;;;1.27;;
38529;SDS011;24301;54.332;48.386;2023-03-14T15:38:48;1.30;;;1.20;;
38529;SDS011;24301;54.332;48.386;2023-03-14T15:41:15;1.40;;;1.10;;
38529;SDS011;24301;54.332;48.386;2023-03-14T15:43:41;2.10;;;1.30;;
38529;SDS011;24301;54.332;48.386;2023-03-14T15:46:10;1.53;;;1.23;;
38529;SDS011;24301;54.332;48.386;2023-03-14T15:48:37;2.07;;;1.40;;
38529;SDS011;24301;54.332;48.386;2023-03-14T15:51:03;2.17;;;1.63;;
38529;SDS011;24301;54.332;48.386;2023-03-14T15:53:29;2.43;;;1.50;;
38529;SDS011;24301;54.332;48.386;2023-03-14T15:55:55;2.97;;;1.73;;
38529;SDS011;24301;54.332;48.386;2023-03-14T15:58:21;1.93;;;1.07;;
38529;SDS011;24301;54.332;48.386;2023-03-14T16:00:47;2.77;;;1.80;;
38529;SDS011;24301;54.332;48.386;2023-03-14T16:03:14;2.03;;;1.80;;
38529;SDS011;24301;54.332;48.386;2023-03-14T16:05:40;1.43;;;1.30;;